Time;durP1;ratioP1;P1;durP2;ratioP2;P2;SDS_P1;SDS_P2;PMS_P1;PMS_P2;Temp;Humidity;BMP_temperature;BMP_pressure;BME280_temperature;BME280_humidity;BME280_pressure;Samples;Min_cycle;Max_cycle;Signal;HPM_P1;HPM_P2
2022/08/15 00:01:36;;;;;;;9.77;5.25;;;;;;;21.97;88.19;95524.72;4987554;28;20046;-75
2022/08/15 00:04:04;;;;;;;9.43;5.70;;;;;;;21.97;86.94;95513.81;4985334;28;21189;-74
2022/08/15 00:06:35;;;;;;;7.43;5.20;;;;;;;21.84;88.78;95514.97;4987583;28;20045;-75
2022/08/15 00:09:07;;;;;;;7.63;5.10;;;;;;;21.68;89.35;95519.53;4985637;28;20030;-75
2022/08/15 00:11:39;;;;;;;7.43;5.18;;;;;;;21.77;88.84;95519.41;4992592;28;20446;-74
2022/08/15 00:14:09;;;;;;;6.80;5.28;;;;;;;21.82;87.60;95506.38;4990473;28;20245;-75
2022/08/15 00:16:37;;;;;;;6.90;5.13;;;;;;;21.82;88.37;95506.38;4989026;28;20083;-74
2022/08/15 00:19:09;;;;;;;7.05;5.20;;;;;;;21.83;88.12;95513.41;4987955;28;20173;-75
2022/08/15 00:21:43;;;;;;;8.57;5.30;;;;;;;21.74;89.07;95523.63;4989468;28;20623;-75
2022/08/15 00:24:11;;;;;;;7.00;4.95;;;;;;;21.64;90.30;95527.59;4989905;28;20115;-74
2022/08/15 00:26:36;;;;;;;8.07;5.13;;;;;;;21.64;89.27;95521.38;4991352;28;20041;-74
2022/08/15 00:29:03;;;;;;;8.23;5.03;;;;;;;21.71;90.08;95524.28;4990023;28;20430;-75
2022/08/15 00:31:31;;;;;;;6.93;4.82;;;;;;;21.64;87.19;95515.94;4989754;28;20050;-75
2022/08/15 00:33:58;;;;;;;5.50;3.75;;;;;;;21.71;80.35;95518.84;4989626;28;20042;-74
2022/08/15 00:36:24;;;;;;;6.40;3.88;;;;;;;21.73;74.90;95513.06;4992254;28;20056;-75
2022/08/15 00:38:49;;;;;;;6.43;3.47;;;;;;;21.77;72.71;95525.66;4992720;28;20576;-74
2022/08/15 00:44:02;;;;;;;4.97;3.28;;;;;;;21.74;70.67;95525.56;4989992;28;20148;-74
2022/08/15 00:46:29;;;;;;;8.35;3.35;;;;;;;21.70;70.45;95525.44;4987724;28;20129;-74
2022/08/15 00:48:55;;;;;;;7.13;3.55;;;;;;;21.54;71.44;95527.25;4959898;28;20034;-74
2022/08/15 00:51:38;;;;;;;4.78;2.90;;;;;;;21.46;71.33;95520.78;4990583;28;20049;-74
2022/08/15 00:54:08;;;;;;;5.88;3.28;;;;;;;21.34;72.31;95512.66;4987206;28;20037;-74
2022/08/15 00:56:41;;;;;;;9.80;2.97;;;;;;;21.24;73.09;95526.63;4993490;28;20137;-75
2022/08/15 00:59:10;;;;;;;4.95;3.22;;;;;;;21.17;73.77;95519.06;4990502;28;20034;-75
2022/08/15 01:01:36;;;;;;;7.72;3.50;;;;;;;21.24;74.17;95524.72;4989299;28;20085;-75
2022/08/15 01:04:02;;;;;;;7.35;3.20;;;;;;;21.20;74.06;95518.38;4987641;28;20141;-74
2022/08/15 01:06:29;;;;;;;8.30;3.10;;;;;;;21.23;74.37;95517.69;5008415;28;20049;-74
2022/08/15 01:08:56;;;;;;;5.18;2.97;;;;;;;21.28;74.57;95519.44;4989400;28;20228;-75
2022/08/15 01:11:26;;;;;;;8.80;2.83;;;;;;;21.21;75.63;95514.53;5005072;28;20161;-75
2022/08/15 01:13:56;;;;;;;4.85;3.15;;;;;;;21.34;73.89;95520.81;4987855;28;20117;-75
2022/08/15 01:16:26;;;;;;;6.80;3.30;;;;;;;21.35;74.13;95523.19;4990347;28;20049;-75
2022/08/15 01:18:51;;;;;;;4.22;3.05;;;;;;;21.37;73.54;95511.94;4988138;28;20486;-75
2022/08/15 01:21:31;;;;;;;6.18;3.20;;;;;;;21.44;73.89;95514.13;4991253;28;20153;-75
2022/08/15 01:24:24;;;;;;;8.38;3.35;;;;;;;21.54;74.00;95522.59;4989438;28;20039;-75
2022/08/15 01:26:51;;;;;;;6.80;3.17;;;;;;;21.56;73.47;95514.13;4991054;28;20473;-75
2022/08/15 01:29:18;;;;;;;7.28;3.20;;;;;;;21.65;72.82;95514.78;4992600;28;20304;-74
2022/08/15 01:31:45;;;;;;;6.05;3.03;;;;;;;21.68;73.11;95516.81;4990170;28;20205;-75
2022/08/15 01:34:11;;;;;;;8.13;3.30;;;;;;;21.63;73.02;95527.94;4984994;28;20147;-75
2022/08/15 01:36:37;;;;;;;6.32;3.10;;;;;;;21.57;77.05;95526.59;4989080;28;20065;-75
2022/08/15 01:39:24;;;;;;;6.07;3.45;;;;;;;21.57;77.23;95524.66;4994635;28;20135;-75
2022/08/15 01:42:01;;;;;;;5.68;3.20;;;;;;;21.64;75.21;95532.25;4987942;28;20112;-75
2022/08/15 01:45:03;;;;;;;6.10;3.17;;;;;;;21.67;76.23;95526.13;4987817;28;20073;-75
2022/08/15 01:47:46;;;;;;;8.63;3.17;;;;;;;21.70;74.27;95520.78;4992859;28;20580;-74
2022/08/15 01:50:24;;;;;;;6.95;3.03;;;;;;;21.67;74.76;95521.47;4992264;28;20100;-75
2022/08/15 01:52:56;;;;;;;5.57;3.28;;;;;;;21.73;73.22;95526.69;4989656;28;20108;-75
2022/08/15 01:55:40;;;;;;;4.85;2.75;;;;;;;21.71;73.19;95524.28;4991685;28;20125;-75
2022/08/15 01:58:07;;;;;;;5.28;3.42;;;;;;;21.69;73.11;95523.84;4992089;28;20324;-75
2022/08/15 02:00:34;;;;;;;11.80;3.40;;;;;;;21.62;75.20;95521.69;4989234;28;20042;-75
2022/08/15 02:03:00;;;;;;;8.07;3.65;;;;;;;21.54;75.81;95519.09;4987157;28;20046;-75
2022/08/15 02:05:26;;;;;;;14.55;3.80;;;;;;;21.39;77.37;95510.47;4987154;28;20601;-75
2022/08/15 02:07:52;;;;;;;9.38;3.55;;;;;;;21.45;75.71;95516.47;4989072;28;20132;-75
2022/08/15 02:10:17;;;;;;;6.13;3.10;;;;;;;21.36;76.46;95515.81;4986075;28;20124;-75
2022/08/15 02:12:43;;;;;;;5.40;3.50;;;;;;;21.35;76.61;95511.50;4988281;28;20501;-75
2022/08/15 02:15:16;;;;;;;5.43;3.20;;;;;;;21.23;77.23;95516.91;4986981;28;20039;-75
2022/08/15 02:17:43;;;;;;;11.07;3.35;;;;;;;21.29;78.41;95508.22;4992626;28;20162;-75
2022/08/15 02:20:11;;;;;;;6.75;3.50;;;;;;;21.39;78.54;95506.97;4989768;28;20044;-75
2022/08/15 02:22:37;;;;;;;8.85;3.45;;;;;;;21.42;79.73;95509.00;4988258;28;20042;-75
2022/08/15 02:25:06;;;;;;;5.93;3.28;;;;;;;21.44;76.70;95506.75;4987817;28;20508;-75
2022/08/15 02:27:35;;;;;;;7.60;3.17;;;;;;;21.44;76.67;95503.22;4987504;28;20042;-75
2022/08/15 02:30:06;;;;;;;5.85;3.42;;;;;;;21.52;74.83;95507.75;4988844;28;20034;-75
2022/08/15 02:32:32;;;;;;;6.60;3.60;;;;;;;21.57;73.39;95510.25;4986789;28;20050;-75
2022/08/15 02:34:59;;;;;;;8.00;3.75;;;;;;;21.63;73.18;95514.31;4990774;28;20094;-75
2022/08/15 02:37:25;;;;;;;5.05;3.50;;;;;;;21.65;72.54;95507.41;4987013;28;20069;-75
2022/08/15 02:39:52;;;;;;;5.55;3.40;;;;;;;21.68;72.11;95514.09;4988817;28;20469;-75
2022/08/15 02:42:19;;;;;;;8.98;3.72;;;;;;;21.68;72.65;95522.25;4986824;28;20115;-75
2022/08/15 02:44:48;;;;;;;6.88;3.45;;;;;;;21.66;72.18;95505.47;4985748;28;20045;-75
2022/08/15 02:47:14;;;;;;;5.97;3.75;;;;;;;21.70;72.28;95512.59;4987935;28;20118;-75
2022/08/15 02:49:43;;;;;;;8.30;3.85;;;;;;;21.72;72.25;95506.84;4969829;28;20042;-74
2022/08/15 02:52:11;;;;;;;6.40;3.92;;;;;;;21.73;72.22;95513.06;4976405;28;20157;-75
2022/08/15 02:54:37;;;;;;;11.60;3.70;;;;;;;21.72;72.71;95508.78;4987771;28;20658;-74
2022/08/15 02:57:06;;;;;;;8.50;3.58;;;;;;;21.70;73.17;95511.81;4989214;28;20104;-75
2022/08/15 02:59:32;;;;;;;6.13;3.58;;;;;;;21.66;74.72;95494.59;5005143;28;20044;-75
2022/08/15 03:01:59;;;;;;;6.40;3.67;;;;;;;21.66;75.07;95489.16;4987748;28;20480;-74
2022/08/15 03:04:25;;;;;;;4.47;3.30;;;;;;;21.57;78.26;95472.94;5001625;28;20050;-75
2022/08/15 03:06:53;;;;;;;9.10;3.58;;;;;;;21.52;78.56;95456.03;4987776;28;20046;-75
2022/08/15 03:09:20;;;;;;;6.05;3.60;;;;;;;21.35;83.27;95449.72;5001811;28;20108;-74
2022/08/15 03:11:59;;;;;;;7.43;3.63;;;;;;;21.24;81.62;95448.53;4989565;28;20037;-74
2022/08/15 03:14:32;;;;;;;6.03;3.35;;;;;;;21.09;83.38;95452.75;4991209;28;20077;-75
2022/08/15 03:16:59;;;;;;;6.03;3.03;;;;;;;20.97;84.11;95463.63;4985448;28;20068;-75
2022/08/15 03:19:26;;;;;;;7.50;3.55;;;;;;;20.98;83.93;95465.22;4990205;28;20485;-75
2022/08/15 03:21:53;;;;;;;9.23;3.92;;;;;;;20.94;84.64;95479.84;4989060;28;20042;-75
2022/08/15 03:24:22;;;;;;;8.13;3.63;;;;;;;20.95;84.47;95474.06;4989671;28;20129;-74
2022/08/15 03:26:49;;;;;;;10.48;3.72;;;;;;;20.96;84.84;95481.06;4982674;28;20410;-75
2022/08/15 03:29:19;;;;;;;9.60;4.03;;;;;;;20.95;84.79;95478.69;5002841;28;20104;-74
2022/08/15 03:31:48;;;;;;;;;;;;;;;20.94;85.51;95477.13;4983962;28;20047;-75
2022/08/15 03:34:19;;;;;;;8.55;4.60;;;;;;;20.98;83.31;95478.81;4990147;28;19909;-74
2022/08/15 03:36:46;;;;;;;6.28;3.78;;;;;;;21.02;83.09;95468.06;4988206;28;20046;-75
2022/08/15 03:39:13;;;;;;;8.73;3.90;;;;;;;20.78;85.29;95461.47;5003909;28;20113;-75
2022/08/15 03:41:40;;;;;;;8.55;3.97;;;;;;;20.84;84.10;95478.31;4986394;28;20041;-74
2022/08/15 03:44:06;;;;;;;10.32;4.00;;;;;;;20.85;84.36;95467.13;4984955;28;20069;-75
2022/08/15 03:46:32;;;;;;;8.57;4.15;;;;;;;20.78;83.80;95469.63;4984219;28;20042;-75
2022/08/15 03:48:58;;;;;;;6.25;3.97;;;;;;;20.81;83.88;95468.94;4993727;28;20037;-74
2022/08/15 03:51:27;;;;;;;7.38;3.80;;;;;;;20.87;83.47;95469.50;5005742;28;20045;-75
2022/08/15 03:53:56;;;;;;;7.68;4.43;;;;;;;20.83;85.76;95474.81;4989260;28;20038;-75
2022/08/15 03:56:28;;;;;;;10.82;3.70;;;;;;;20.82;86.40;95470.50;4983479;28;20042;-75
2022/08/15 03:58:56;;;;;;;12.95;4.47;;;;;;;20.76;86.78;95469.13;4984867;28;20448;-75
2022/08/15 04:01:26;;;;;;;8.35;4.05;;;;;;;20.84;84.53;95473.69;4986914;28;20135;-74
2022/08/15 04:03:51;;;;;;;6.30;3.72;;;;;;;20.93;84.08;95470.84;5001022;28;20046;-75
2022/08/15 04:06:23;;;;;;;8.23;3.90;;;;;;;20.98;84.10;95475.28;4988338;28;20462;-75
2022/08/15 04:08:52;;;;;;;6.95;4.22;;;;;;;20.93;86.13;95470.06;4985520;28;20041;-75
2022/08/15 04:11:20;;;;;;;8.00;4.18;;;;;;;20.94;84.63;95477.91;5001512;28;20038;-75
2022/08/15 04:13:48;;;;;;;9.38;4.00;;;;;;;20.93;84.83;95473.56;4985997;28;20034;-75
2022/08/15 04:16:16;;;;;;;13.73;4.43;;;;;;;20.94;84.34;95475.19;5006839;28;20527;-75
2022/08/15 04:18:42;;;;;;;7.18;3.58;;;;;;;20.96;84.84;95480.28;4983576;28;20046;-74
2022/08/15 04:21:13;;;;;;;8.60;4.13;;;;;;;20.99;84.58;95483.09;4990144;28;20093;-74
2022/08/15 04:23:40;;;;;;;;;;;;;;;20.94;85.89;95486.06;5007624;28;20043;-74
2022/08/15 04:26:05;;;;;;;5.93;3.80;;;;;;;20.96;84.29;95491.94;5001247;28;19956;-74
2022/08/15 04:28:33;;;;;;;8.32;3.80;;;;;;;20.95;84.46;95493.09;4985888;28;20499;-74
2022/08/15 04:31:03;;;;;;;6.28;3.70;;;;;;;20.94;84.92;95494.22;4985427;28;20050;-74
2022/08/15 04:33:32;;;;;;;9.50;4.00;;;;;;;20.95;84.90;95497.72;4989973;28;20509;-74
2022/08/15 04:36:02;;;;;;;5.68;3.53;;;;;;;20.97;85.92;95511.78;4987365;28;20049;-74
2022/08/15 04:38:32;;;;;;;7.63;3.88;;;;;;;20.81;86.51;95512.41;4984118;28;20119;-74
2022/08/15 04:40:59;;;;;;;9.60;3.80;;;;;;;20.74;89.30;95514.09;4988604;28;20543;-74
2022/08/15 04:43:27;;;;;;;8.95;3.45;;;;;;;20.72;87.54;95516.38;4988167;28;20091;-74
2022/08/15 04:45:55;;;;;;;7.93;3.80;;;;;;;20.76;88.75;95520.00;4984141;28;20030;-74
2022/08/15 04:48:21;;;;;;;10.50;3.67;;;;;;;20.79;89.15;95516.63;4988650;28;20085;-74
2022/08/15 04:50:52;;;;;;;10.15;3.90;;;;;;;20.75;88.53;95523.84;4991111;28;20806;-74
2022/08/15 04:53:24;;;;;;;7.88;3.70;;;;;;;20.80;88.61;95519.00;4989306;28;20046;-74
2022/08/15 04:55:51;;;;;;;6.07;3.72;;;;;;;20.79;90.14;95511.19;4984627;28;20034;-74
2022/08/15 04:58:18;;;;;;;6.28;3.40;;;;;;;20.73;90.83;95513.31;4991749;28;20034;-74
2022/08/15 05:00:54;;;;;;;6.72;3.67;;;;;;;20.58;91.98;95506.59;4988977;28;20049;-74
2022/08/15 05:03:43;;;;;;;10.25;3.92;;;;;;;20.50;92.59;95512.09;4986936;28;20084;-74
2022/08/15 05:06:10;;;;;;;10.95;3.40;;;;;;;20.49;93.51;95513.25;4993652;28;20527;-74
2022/08/15 05:08:38;;;;;;;7.68;3.40;;;;;;;20.46;94.30;95517.41;5006359;28;20192;-74
2022/08/15 05:11:14;;;;;;;9.52;3.80;;;;;;;20.36;94.46;95519.72;4972320;28;20296;-74
2022/08/15 05:13:42;;;;;;;10.07;4.05;;;;;;;20.36;93.07;95517.78;4989936;28;20050;-74
2022/08/15 05:16:15;;;;;;;;;;;;;;;20.33;96.24;95523.91;4991699;28;20042;-74
2022/08/15 05:18:43;;;;;;;8.77;3.95;;;;;;;20.34;93.59;95525.47;4991714;28;20050;-74
2022/08/15 05:21:11;;;;;;;17.20;3.42;;;;;;;20.41;92.46;95524.94;4988260;28;20038;-73
2022/08/15 05:23:40;;;;;;;8.15;3.63;;;;;;;20.45;92.16;95534.84;5009439;28;20038;-74
2022/08/15 05:26:07;;;;;;;12.80;3.97;;;;;;;20.46;93.01;95532.91;4989135;28;20045;-74
2022/08/15 05:28:36;;;;;;;6.90;4.03;;;;;;;20.40;93.02;95536.94;4977432;28;20073;-74
2022/08/15 05:31:08;;;;;;;10.80;3.63;;;;;;;20.25;93.44;95533.72;4999630;28;20922;-74
2022/08/15 05:33:34;;;;;;;7.35;3.95;;;;;;;20.16;93.78;95540.34;4992636;28;20447;-74
2022/08/15 05:36:03;;;;;;;6.47;3.90;;;;;;;20.22;92.86;95539.00;4991101;28;20148;-74
2022/08/15 05:38:37;;;;;;;9.00;3.97;;;;;;;20.15;94.86;95525.94;4990019;28;20568;-74
2022/08/15 05:41:24;;;;;;;7.78;3.58;;;;;;;20.31;94.29;95540.53;4990827;28;20046;-74
2022/08/15 05:44:17;;;;;;;11.07;4.32;;;;;;;20.26;93.74;95540.72;4991912;28;20386;-74
2022/08/15 05:46:51;;;;;;;6.47;3.80;;;;;;;20.51;92.01;95540.88;4975533;28;20443;-74
2022/08/15 05:49:45;;;;;;;12.82;4.10;;;;;;;20.81;92.12;95534.16;4988998;28;20033;-74
2022/08/15 05:52:26;;;;;;;10.65;4.20;;;;;;;21.02;91.74;95531.41;4988799;28;20049;-74
2022/08/15 05:55:17;;;;;;;9.93;4.10;;;;;;;21.15;91.78;95535.69;4988088;28;20511;-74
2022/08/15 05:58:05;;;;;;;11.02;5.35;;;;;;;21.22;92.09;95532.44;4989250;28;20049;-74
2022/08/15 06:00:38;;;;;;;10.88;5.28;;;;;;;21.36;91.10;95530.22;4992382;28;20042;-74
2022/08/15 06:03:11;;;;;;;13.50;4.55;;;;;;;21.46;91.83;95539.03;4983955;28;20052;-74
2022/08/15 06:05:46;;;;;;;9.20;4.53;;;;;;;21.51;92.03;95533.38;4992068;28;20601;-74
2022/08/15 06:08:20;;;;;;;9.98;3.90;;;;;;;21.52;92.39;95535.75;4990094;28;20042;-74
2022/08/15 06:10:54;;;;;;;9.73;4.20;;;;;;;21.59;92.59;95540.66;4987208;28;20095;-74
2022/08/15 06:13:24;;;;;;;11.43;4.25;;;;;;;21.70;93.65;95530.88;4969469;28;20033;-74
2022/08/15 06:15:59;;;;;;;9.70;4.75;;;;;;;21.80;93.71;95526.91;4988420;28;20049;-74
2022/08/15 06:18:29;;;;;;;8.48;3.90;;;;;;;21.83;95.04;95540.63;5001869;28;20078;-74
2022/08/15 06:21:15;;;;;;;13.15;4.55;;;;;;;21.85;96.26;95532.09;4988698;28;20309;-74
2022/08/15 06:23:59;;;;;;;13.73;4.28;;;;;;;21.84;95.23;95525.88;4988845;28;20388;-74
2022/08/15 06:27:01;;;;;;;11.02;4.18;;;;;;;21.91;98.22;95528.81;4988205;28;20038;-74
2022/08/15 06:29:46;;;;;;;12.70;4.30;;;;;;;21.97;98.04;95534.81;4991683;28;20116;-74
2022/08/15 06:32:36;;;;;;;13.38;4.32;;;;;;;22.08;96.44;95532.44;4988023;28;20679;-74
2022/08/15 06:35:41;;;;;;;18.67;4.15;;;;;;;22.11;99.01;95535.28;4976080;28;20069;-74
2022/08/15 06:38:43;;;;;;;11.23;3.70;;;;;;;22.17;97.03;95528.44;4987765;28;20552;-74
2022/08/15 06:41:41;;;;;;;11.60;4.15;;;;;;;22.21;97.07;95534.78;4987318;28;20103;-74
2022/08/15 06:44:13;;;;;;;7.03;3.88;;;;;;;22.26;97.25;95531.03;4970575;28;20409;-74
2022/08/15 06:46:47;;;;;;;11.80;4.80;;;;;;;22.32;97.37;95545.97;4991770;28;20074;-74
2022/08/15 06:49:13;;;;;;;15.40;4.80;;;;;;;22.43;96.73;95527.22;5003742;28;20440;-74
2022/08/15 06:51:45;;;;;;;13.45;4.07;;;;;;;22.50;97.69;95536.41;4990262;28;20385;-74
2022/08/15 06:54:14;;;;;;;10.07;4.43;;;;;;;22.49;97.15;95534.81;4987214;28;20042;-74
2022/08/15 06:56:53;;;;;;;14.77;4.28;;;;;;;22.48;99.04;95533.22;4988158;28;20046;-74
2022/08/15 06:59:40;;;;;;;12.00;4.57;;;;;;;22.43;100.00;95533.47;4990084;28;20033;-74
2022/08/15 07:02:11;;;;;;;15.17;4.87;;;;;;;22.50;98.05;95536.41;4989960;28;20504;-75
2022/08/15 07:04:59;;;;;;;12.40;5.15;;;;;;;22.52;100.00;95542.28;4987135;28;20137;-75
2022/08/15 07:07:43;;;;;;;20.90;4.68;;;;;;;22.45;99.69;95533.91;4991408;28;20234;-74
2022/08/15 07:10:14;;;;;;;18.92;4.80;;;;;;;22.53;98.99;95535.69;5000804;28;20148;-74
2022/08/15 07:12:50;;;;;;;14.52;4.95;;;;;;;22.59;97.49;95524.56;4986379;28;20081;-74
2022/08/15 07:15:47;;;;;;;17.30;5.22;;;;;;;22.60;98.67;95528.88;4986368;28;20143;-74
2022/08/15 07:18:20;;;;;;;18.63;3.97;;;;;;;22.63;97.51;95520.78;4991343;28;20041;-74
2022/08/15 07:20:46;;;;;;;13.57;4.80;;;;;;;22.68;98.63;95531.44;4988844;28;20041;-74
2022/08/15 07:23:22;;;;;;;16.63;3.92;;;;;;;22.76;98.51;95510.59;4987525;28;20053;-74
2022/08/15 07:25:49;;;;;;;17.45;4.53;;;;;;;22.93;98.12;95526.66;4989774;28;20626;-74
2022/08/15 07:28:18;;;;;;;34.45;4.93;;;;;;;23.08;97.67;95517.72;4986349;28;20528;-74
2022/08/15 07:30:59;;;;;;;15.50;4.57;;;;;;;23.22;97.27;95508.31;5004982;28;20556;-74
2022/08/15 07:33:33;;;;;;;12.77;4.53;;;;;;;23.28;97.95;95509.63;4990058;28;20037;-74
2022/08/15 07:36:14;;;;;;;11.23;4.55;;;;;;;23.19;97.50;95518.00;4986827;28;20105;-74
2022/08/15 07:38:41;;;;;;;16.02;4.15;;;;;;;23.05;97.80;95504.00;4982969;28;20529;-74
2022/08/15 07:41:12;;;;;;;18.55;4.20;;;;;;;22.85;97.55;95516.72;4985279;28;20392;-74
2022/08/15 07:43:38;;;;;;;7.63;4.10;;;;;;;22.84;97.57;95517.03;4985127;28;20107;-74
2022/08/15 07:46:12;;;;;;;12.27;4.53;;;;;;;22.81;98.57;95515.81;4989594;28;20049;-74
2022/08/15 07:48:40;;;;;;;8.65;4.03;;;;;;;22.83;98.53;95516.25;4987740;28;20047;-74
2022/08/15 07:51:14;;;;;;;12.38;4.70;;;;;;;22.98;99.21;95510.06;4987521;28;20447;-74
2022/08/15 07:53:58;;;;;;;8.23;4.97;;;;;;;23.06;97.39;95506.38;4987230;28;20192;-74
2022/08/15 07:56:33;;;;;;;13.60;4.88;;;;;;;23.15;98.53;95502.66;5001994;28;20409;-74
2022/08/15 07:59:22;;;;;;;15.65;4.45;;;;;;;23.29;98.99;95511.22;4985382;28;20068;-74
2022/08/15 08:02:01;;;;;;;11.85;5.18;;;;;;;23.56;96.96;95518.50;4987622;28;20050;-74
2022/08/15 08:04:29;;;;;;;15.63;4.25;;;;;;;23.77;95.12;95511.97;4989381;28;20551;-74
2022/08/15 08:07:16;;;;;;;13.57;4.85;;;;;;;23.75;94.62;95520.53;4989645;28;20277;-74
2022/08/15 08:09:47;;;;;;;10.80;5.15;;;;;;;23.54;93.52;95526.25;4985417;28;20061;-74
2022/08/15 08:12:38;;;;;;;15.82;5.03;;;;;;;23.35;95.40;95531.66;4989717;28;20069;-73
2022/08/15 08:15:24;;;;;;;22.40;5.25;;;;;;;23.30;95.14;95524.50;4985245;28;20132;-74
2022/08/15 08:18:01;;;;;;;13.90;4.60;;;;;;;23.29;96.84;95536.56;4986554;28;20606;-74
2022/08/15 08:20:41;;;;;;;9.57;4.60;;;;;;;23.20;98.61;95543.34;5005886;28;20046;-73
2022/08/15 08:23:22;;;;;;;14.65;4.78;;;;;;;23.10;100.00;95549.31;4984201;28;20046;-73
2022/08/15 08:26:06;;;;;;;12.02;4.93;;;;;;;22.99;100.00;95547.09;5004829;28;20081;-74
2022/08/15 08:28:43;;;;;;;9.85;4.38;;;;;;;22.69;100.00;95554.81;4973000;28;20042;-74
2022/08/15 08:31:21;;;;;;;17.17;4.78;;;;;;;22.45;100.00;95555.72;4977236;28;20376;-74
2022/08/15 08:34:05;;;;;;;11.60;4.72;;;;;;;22.48;100.00;95549.56;4989273;28;20065;-75
2022/08/15 08:36:44;;;;;;;13.43;5.20;;;;;;;22.49;100.00;95556.63;4990435;28;20052;-75
2022/08/15 08:39:22;;;;;;;11.75;5.13;;;;;;;22.37;100.00;95556.66;4986859;28;20038;-75
2022/08/15 08:41:58;;;;;;;11.98;5.05;;;;;;;22.36;100.00;95554.28;4990047;28;20464;-74
2022/08/15 08:44:27;;;;;;;11.15;5.55;;;;;;;22.37;100.00;95559.38;4987407;28;20054;-75
2022/08/15 08:47:18;;;;;;;15.50;5.18;;;;;;;22.46;100.00;95562.75;4990090;28;20045;-74
2022/08/15 08:49:57;;;;;;;16.20;5.15;;;;;;;22.36;100.00;95562.47;4990468;28;20271;-74
2022/08/15 08:52:40;;;;;;;14.73;4.82;;;;;;;22.46;100.00;95561.97;4987119;28;20049;-75
2022/08/15 08:55:08;;;;;;;12.52;5.00;;;;;;;22.20;100.00;95559.66;4988072;28;20042;-75
2022/08/15 08:57:44;;;;;;;14.57;5.00;;;;;;;22.17;100.00;95565.78;4992641;28;20515;-74
2022/08/15 09:00:16;;;;;;;15.77;4.50;;;;;;;22.16;100.00;95558.75;4975029;28;20054;-75
2022/08/15 09:03:02;;;;;;;11.70;4.53;;;;;;;22.29;100.00;95562.25;4977133;28;20423;-72
2022/08/15 09:05:39;;;;;;;14.15;4.45;;;;;;;22.13;100.00;95562.16;4989425;28;20034;-73
2022/08/15 09:08:12;;;;;;;14.00;4.28;;;;;;;22.12;100.00;95574.22;4989812;28;20035;-74
2022/08/15 09:10:42;;;;;;;7.38;4.18;;;;;;;22.11;100.00;95578.06;4985430;28;20100;-73
2022/08/15 09:16:00;;;;;;;14.98;4.57;;;;;;;21.95;100.00;95588.84;4989155;28;20119;-73
2022/08/15 09:18:35;;;;;;;11.77;4.20;;;;;;;21.92;100.00;95587.56;4991955;28;20081;-74
2022/08/15 09:21:02;;;;;;;10.27;4.72;;;;;;;22.09;100.00;95596.66;4986029;28;20141;-74
2022/08/15 09:23:34;;;;;;;12.23;4.85;;;;;;;22.33;100.00;95591.16;4989157;28;20469;-74
2022/08/15 09:26:19;;;;;;;11.88;4.20;;;;;;;22.48;100.00;95603.28;4987747;28;20037;-75
2022/08/15 09:29:06;;;;;;;9.07;4.40;;;;;;;22.50;100.00;95596.38;4989308;28;20034;-74
2022/08/15 09:31:36;;;;;;;8.15;4.40;;;;;;;22.40;100.00;95605.00;4991210;28;20584;-73
2022/08/15 09:34:08;;;;;;;12.10;4.07;;;;;;;22.21;100.00;95594.72;4990175;28;20311;-74
2022/08/15 09:36:39;;;;;;;11.38;4.50;;;;;;;22.21;100.00;95599.38;4989711;28;20124;-74
2022/08/15 09:39:32;;;;;;;12.48;4.70;;;;;;;22.34;100.00;95603.69;4988557;28;20457;-74
2022/08/15 09:42:01;;;;;;;11.18;4.65;;;;;;;22.47;100.00;95596.25;4988303;28;20050;-74
2022/08/15 09:44:53;;;;;;;17.83;4.18;;;;;;;22.70;100.00;95607.41;4989866;28;20413;-74
2022/08/15 09:47:45;;;;;;;17.02;4.68;;;;;;;22.86;100.00;95600.13;4986619;28;20232;-74
2022/08/15 09:50:16;;;;;;;12.05;4.20;;;;;;;23.03;100.00;95593.56;4986968;28;20342;-74
2022/08/15 09:53:00;;;;;;;8.95;3.70;;;;;;;22.69;100.00;95590.28;4990949;28;20038;-74
2022/08/15 09:55:44;;;;;;;18.00;4.45;;;;;;;22.63;100.00;95604.50;4987309;28;20462;-74
2022/08/15 09:58:26;;;;;;;11.95;3.80;;;;;;;22.93;100.00;95599.53;4988854;28;20076;-74
2022/08/15 10:01:03;;;;;;;10.15;3.75;;;;;;;22.75;100.00;95604.47;4976604;28;20129;-74
2022/08/15 10:03:43;;;;;;;10.95;3.88;;;;;;;22.39;100.00;95603.44;4989271;28;20266;-74
2022/08/15 10:06:27;;;;;;;16.50;4.47;;;;;;;22.55;100.00;95610.88;4990581;28;20049;-74
2022/08/15 10:08:53;;;;;;;14.15;3.95;;;;;;;22.97;100.00;95614.84;4989404;28;20107;-74
2022/08/15 10:11:28;;;;;;;9.55;4.55;;;;;;;22.44;100.00;95618.75;4988909;28;20447;-74
2022/08/15 10:14:19;;;;;;;6.55;3.83;;;;;;;23.15;100.00;95609.88;4990339;28;20042;-74
2022/08/15 10:16:51;;;;;;;11.75;4.05;;;;;;;23.61;100.00;95611.09;4979193;28;20168;-74
2022/08/15 10:19:35;;;;;;;16.35;4.13;;;;;;;24.10;97.74;95613.41;4986270;28;20045;-74
2022/08/15 10:22:21;;;;;;;7.28;3.78;;;;;;;23.98;98.30;95619.00;4987573;28;20648;-74
2022/08/15 10:25:20;;;;;;;8.77;3.97;;;;;;;23.87;99.44;95612.47;4987649;28;20049;-74
2022/08/15 10:27:57;;;;;;;12.16;4.43;;;;;;;23.99;97.37;95612.41;4298965;28;10001316;-74
2022/08/15 10:30:30;;;;;;;7.68;3.97;;;;;;;24.52;94.80;95609.31;4986812;28;20140;-74
2022/08/15 10:33:00;;;;;;;13.05;3.75;;;;;;;25.08;93.69;95614.38;4984406;28;20128;-73
2022/08/15 10:35:45;;;;;;;16.52;4.47;;;;;;;25.21;90.79;95611.13;4915271;28;20062;-73
2022/08/15 10:38:13;;;;;;;16.02;4.40;;;;;;;25.49;89.43;95610.03;4949363;28;20379;-73
2022/08/15 10:41:17;;;;;;;9.35;3.80;;;;;;;26.09;85.75;95610.28;4948691;28;20039;-73
2022/08/15 10:43:59;;;;;;;10.15;4.18;;;;;;;26.09;86.20;95611.06;4948531;28;20101;-73
2022/08/15 10:46:35;;;;;;;9.82;4.07;;;;;;;26.14;86.42;95603.66;4946435;28;20498;-73
2022/08/15 10:49:12;;;;;;;15.35;4.18;;;;;;;25.93;83.79;95609.63;4947168;28;20071;-73
2022/08/15 10:51:53;;;;;;;9.35;3.80;;;;;;;26.10;84.84;95609.09;4947453;28;20047;-73
2022/08/15 10:54:42;;;;;;;14.27;4.63;;;;;;;26.65;83.91;95612.25;4948762;28;20600;-73
2022/08/15 10:57:10;;;;;;;11.13;3.35;;;;;;;27.08;82.21;95605.38;4950337;28;20054;-73
2022/08/15 10:59:40;;;;;;;19.73;4.20;;;;;;;27.48;79.69;95615.59;4921466;28;20062;-74
2022/08/15 11:02:16;;;;;;;9.50;3.97;;;;;;;27.30;80.65;95622.84;4960991;28;20058;-73
2022/08/15 11:04:42;;;;;;;12.15;3.80;;;;;;;27.23;80.71;95614.53;4964849;28;20506;-73
2022/08/15 11:07:30;;;;;;;9.00;3.72;;;;;;;26.91;80.50;95616.88;4965717;28;20034;-73
2022/08/15 11:10:01;;;;;;;10.40;3.80;;;;;;;26.67;84.05;95615.41;4967708;28;20038;-73
2022/08/15 11:12:31;;;;;;;10.15;3.63;;;;;;;27.36;79.38;95604.88;4967939;28;20042;-73
2022/08/15 11:15:12;;;;;;;10.50;3.83;;;;;;;27.78;76.69;95603.69;4963662;28;20388;-74
2022/08/15 11:17:38;;;;;;;7.22;3.33;;;;;;;27.65;76.47;95618.88;4968031;28;20042;-73
2022/08/15 11:20:27;;;;;;;7.80;3.33;;;;;;;27.51;78.38;95610.50;4964975;28;20453;-73
2022/08/15 11:23:00;;;;;;;9.73;3.83;;;;;;;27.21;79.00;95622.34;4968167;28;20212;-73
2022/08/15 11:25:31;;;;;;;5.85;3.83;;;;;;;26.93;80.43;95626.34;4965919;28;20052;-73
2022/08/15 11:27:58;;;;;;;;;;;;;;;26.87;81.02;95627.81;4968990;28;20410;-73
2022/08/15 11:30:24;;;;;;;9.40;3.97;;;;;;;27.00;80.80;95633.84;4967499;28;19952;-73
2022/08/15 11:32:50;;;;;;;8.32;4.15;;;;;;;26.95;78.59;95628.72;4965975;28;20867;-73
2022/08/15 11:35:29;;;;;;;8.18;3.22;;;;;;;26.49;78.89;95630.84;4966553;28;20092;-73
2022/08/15 11:37:57;;;;;;;7.95;3.10;;;;;;;26.21;79.86;95623.75;4967421;28;20038;-73
2022/08/15 11:40:37;;;;;;;9.77;3.63;;;;;;;26.02;80.63;95635.63;4963347;28;20101;-73
2022/08/15 11:43:05;;;;;;;9.65;3.35;;;;;;;26.34;79.54;95641.59;4966850;28;20643;-74
2022/08/15 11:45:35;;;;;;;6.85;2.90;;;;;;;26.22;77.69;95641.00;4967124;28;20507;-73
2022/08/15 11:48:01;;;;;;;;;;;;;;;26.01;78.22;95635.97;4968793;28;20045;-74
2022/08/15 11:50:37;;;;;;;14.05;3.70;;;;;;;26.28;78.06;95634.81;4967968;28;20352;-73
2022/08/15 11:53:05;;;;;;;5.78;2.92;;;;;;;26.63;78.07;95642.03;4965044;28;20790;-73
2022/08/15 11:55:32;;;;;;;8.90;2.85;;;;;;;26.72;76.79;95631.56;4965170;28;20041;-74
2022/08/15 11:58:02;;;;;;;9.68;3.25;;;;;;;26.65;77.10;95642.44;4965801;28;20039;-73
2022/08/15 12:00:36;;;;;;;8.63;2.92;;;;;;;26.69;77.83;95637.78;4955348;28;20066;-73
2022/08/15 12:03:23;;;;;;;8.13;3.05;;;;;;;26.90;75.25;95642.75;4967627;28;20332;-73
2022/08/15 12:05:58;;;;;;;10.57;3.47;;;;;;;27.20;75.50;95631.75;4963374;28;20592;-73